sensor_id;sensor_type;location;lat;lon;timestamp;temperature;humidity
45843;DHT22;31563;51.744;8.252;2023-02-28T00:01:09;19.20;64.50
45843;DHT22;31563;51.744;8.252;2023-02-28T00:03:39;19.20;54.30
45843;DHT22;31563;51.744;8.252;2023-02-28T00:06:07;19.30;56.20
45843;DHT22;31563;51.744;8.252;2023-02-28T00:08:38;19.30;56.90
45843;DHT22;31563;51.744;8.252;2023-02-28T00:11:09;19.30;57.60
45843;DHT22;31563;51.744;8.252;2023-02-28T00:13:38;19.00;37.50
45843;DHT22;31563;51.744;8.252;2023-02-28T00:16:09;19.20;53.70
45843;DHT22;31563;51.744;8.252;2023-02-28T00:18:40;19.10;55.40
45843;DHT22;31563;51.744;8.252;2023-02-28T00:21:08;19.30;47.30
45843;DHT22;31563;51.744;8.252;2023-02-28T00:23:37;19.30;57.30
45843;DHT22;31563;51.744;8.252;2023-02-28T00:26:05;19.10;56.30
45843;DHT22;31563;51.744;8.252;2023-02-28T00:28:33;19.10;56.60
45843;DHT22;31563;51.744;8.252;2023-02-28T00:31:01;19.00;60.50
45843;DHT22;31563;51.744;8.252;2023-02-28T00:36:04;19.20;59.10
45843;DHT22;31563;51.744;8.252;2023-02-28T00:38:33;19.10;60.00
45843;DHT22;31563;51.744;8.252;2023-02-28T00:41:01;19.10;64.10
45843;DHT22;31563;51.744;8.252;2023-02-28T00:43:32;19.00;39.30
45843;DHT22;31563;51.744;8.252;2023-02-28T00:46:01;18.90;56.80
45843;DHT22;31563;51.744;8.252;2023-02-28T00:50:58;18.90;54.80
45843;DHT22;31563;51.744;8.252;2023-02-28T00:53:28;18.90;53.00
45843;DHT22;31563;51.744;8.252;2023-02-28T00:55:56;18.80;58.90
45843;DHT22;31563;51.744;8.252;2023-02-28T00:58:25;18.80;55.70
45843;DHT22;31563;51.744;8.252;2023-02-28T01:00:53;18.90;58.10
45843;DHT22;31563;51.744;8.252;2023-02-28T01:03:22;18.70;64.50
45843;DHT22;31563;51.744;8.252;2023-02-28T01:05:50;18.30;59.30
45843;DHT22;31563;51.744;8.252;2023-02-28T01:08:19;18.80;55.30
45843;DHT22;31563;51.744;8.252;2023-02-28T01:10:49;19.40;53.40
45843;DHT22;31563;51.744;8.252;2023-02-28T01:13:17;18.80;51.70
45843;DHT22;31563;51.744;8.252;2023-02-28T01:15:50;18.80;41.40
45843;DHT22;31563;51.744;8.252;2023-02-28T01:18:19;18.80;52.90
45843;DHT22;31563;51.744;8.252;2023-02-28T01:20:48;18.50;52.70
45843;DHT22;31563;51.744;8.252;2023-02-28T01:23:18;18.60;60.10
45843;DHT22;31563;51.744;8.252;2023-02-28T01:25:46;18.60;52.00
45843;DHT22;31563;51.744;8.252;2023-02-28T01:28:16;18.80;48.60
45843;DHT22;31563;51.744;8.252;2023-02-28T01:30:48;18.70;49.10
45843;DHT22;31563;51.744;8.252;2023-02-28T01:33:16;18.70;48.70
45843;DHT22;31563;51.744;8.252;2023-02-28T01:35:44;18.90;48.10
45843;DHT22;31563;51.744;8.252;2023-02-28T01:38:12;18.80;55.80
45843;DHT22;31563;51.744;8.252;2023-02-28T01:40:49;18.80;52.00
45843;DHT22;31563;51.744;8.252;2023-02-28T01:43:22;18.50;51.40
45843;DHT22;31563;51.744;8.252;2023-02-28T01:45:51;18.50;54.20
45843;DHT22;31563;51.744;8.252;2023-02-28T01:48:22;18.50;52.70
45843;DHT22;31563;51.744;8.252;2023-02-28T01:50:53;18.70;52.70
45843;DHT22;31563;51.744;8.252;2023-02-28T01:53:26;18.20;57.00
45843;DHT22;31563;51.744;8.252;2023-02-28T01:55:58;18.10;50.00
45843;DHT22;31563;51.744;8.252;2023-02-28T01:58:27;18.70;48.00
45843;DHT22;31563;51.744;8.252;2023-02-28T02:00:55;18.50;46.60
45843;DHT22;31563;51.744;8.252;2023-02-28T02:03:24;18.10;54.60
45843;DHT22;31563;51.744;8.252;2023-02-28T02:05:52;18.00;45.00
45843;DHT22;31563;51.744;8.252;2023-02-28T02:08:22;18.20;51.30
45843;DHT22;31563;51.744;8.252;2023-02-28T02:10:53;18.20;49.50
45843;DHT22;31563;51.744;8.252;2023-02-28T02:13:38;17.90;35.40
45843;DHT22;31563;51.744;8.252;2023-02-28T02:16:18;17.90;35.40
45843;DHT22;31563;51.744;8.252;2023-02-28T02:18:53;18.30;54.30
45843;DHT22;31563;51.744;8.252;2023-02-28T02:21:47;18.20;34.30
45843;DHT22;31563;51.744;8.252;2023-02-28T02:25:04;18.10;33.70
45843;DHT22;31563;51.744;8.252;2023-02-28T02:28:05;17.70;48.10
45843;DHT22;31563;51.744;8.252;2023-02-28T02:31:18;18.30;35.20
45843;DHT22;31563;51.744;8.252;2023-02-28T02:34:13;18.00;33.70
45843;DHT22;31563;51.744;8.252;2023-02-28T02:36:48;18.20;50.50
45843;DHT22;31563;51.744;8.252;2023-02-28T02:39:27;17.90;46.20
45843;DHT22;31563;51.744;8.252;2023-02-28T02:42:01;17.70;34.40
45843;DHT22;31563;51.744;8.252;2023-02-28T02:44:33;17.80;54.20
45843;DHT22;31563;51.744;8.252;2023-02-28T02:47:06;18.40;55.10
45843;DHT22;31563;51.744;8.252;2023-02-28T02:49:38;17.70;47.80
45843;DHT22;31563;51.744;8.252;2023-02-28T02:52:10;17.80;48.20
45843;DHT22;31563;51.744;8.252;2023-02-28T02:54:42;18.40;48.30
45843;DHT22;31563;51.744;8.252;2023-02-28T02:57:13;18.20;46.60
45843;DHT22;31563;51.744;8.252;2023-02-28T02:59:43;17.90;33.90
45843;DHT22;31563;51.744;8.252;2023-02-28T03:02:15;17.90;46.90
45843;DHT22;31563;51.744;8.252;2023-02-28T03:04:50;17.20;46.20
45843;DHT22;31563;51.744;8.252;2023-02-28T03:07:19;17.60;45.10
45843;DHT22;31563;51.744;8.252;2023-02-28T03:09:51;17.50;46.60
45843;DHT22;31563;51.744;8.252;2023-02-28T03:12:21;17.70;45.90
45843;DHT22;31563;51.744;8.252;2023-02-28T03:14:53;17.50;34.40
45843;DHT22;31563;51.744;8.252;2023-02-28T03:17:47;17.60;33.80
45843;DHT22;31563;51.744;8.252;2023-02-28T03:20:27;17.60;45.30
45843;DHT22;31563;51.744;8.252;2023-02-28T03:22:59;16.80;33.40
45843;DHT22;31563;51.744;8.252;2023-02-28T03:25:35;17.80;44.30
45843;DHT22;31563;51.744;8.252;2023-02-28T03:28:10;17.70;44.70
45843;DHT22;31563;51.744;8.252;2023-02-28T03:30:47;17.70;44.70
45843;DHT22;31563;51.744;8.252;2023-02-28T03:33:21;17.10;33.70
45843;DHT22;31563;51.744;8.252;2023-02-28T03:35:54;16.90;43.70
45843;DHT22;31563;51.744;8.252;2023-02-28T03:38:27;17.50;34.00
45843;DHT22;31563;51.744;8.252;2023-02-28T03:41:01;17.50;34.20
45843;DHT22;31563;51.744;8.252;2023-02-28T03:43:35;17.10;44.40
45843;DHT22;31563;51.744;8.252;2023-02-28T03:46:09;17.30;44.60
45843;DHT22;31563;51.744;8.252;2023-02-28T03:48:42;18.10;44.20
45843;DHT22;31563;51.744;8.252;2023-02-28T03:51:16;17.40;43.00
45843;DHT22;31563;51.744;8.252;2023-02-28T03:53:49;17.80;43.60
45843;DHT22;31563;51.744;8.252;2023-02-28T03:56:21;17.20;42.50
45843;DHT22;31563;51.744;8.252;2023-02-28T03:58:55;16.80;45.20
45843;DHT22;31563;51.744;8.252;2023-02-28T04:01:30;17.40;44.70
45843;DHT22;31563;51.744;8.252;2023-02-28T04:03:59;17.60;43.30
45843;DHT22;31563;51.744;8.252;2023-02-28T04:06:31;17.40;42.60
45843;DHT22;31563;51.744;8.252;2023-02-28T04:09:00;17.20;34.30
45843;DHT22;31563;51.744;8.252;2023-02-28T04:11:33;17.20;34.40
45843;DHT22;31563;51.744;8.252;2023-02-28T04:14:01;17.20;35.00
45843;DHT22;31563;51.744;8.252;2023-02-28T04:16:30;17.10;43.10
45843;DHT22;31563;51.744;8.252;2023-02-28T04:19:02;17.20;35.10
45843;DHT22;31563;51.744;8.252;2023-02-28T04:21:34;17.20;35.00
45843;DHT22;31563;51.744;8.252;2023-02-28T04:24:03;17.20;42.70
45843;DHT22;31563;51.744;8.252;2023-02-28T04:26:32;17.10;34.30
45843;DHT22;31563;51.744;8.252;2023-02-28T04:29:01;16.90;44.10
45843;DHT22;31563;51.744;8.252;2023-02-28T04:31:30;17.10;43.30
45843;DHT22;31563;51.744;8.252;2023-02-28T04:33:59;17.20;43.20
45843;DHT22;31563;51.744;8.252;2023-02-28T04:36:27;17.30;42.90
45843;DHT22;31563;51.744;8.252;2023-02-28T04:38:57;17.10;34.90
45843;DHT22;31563;51.744;8.252;2023-02-28T04:41:25;17.10;34.90
45843;DHT22;31563;51.744;8.252;2023-02-28T04:43:58;17.80;43.80
45843;DHT22;31563;51.744;8.252;2023-02-28T04:46:26;17.00;34.50
45843;DHT22;31563;51.744;8.252;2023-02-28T04:48:54;17.10;34.50
45843;DHT22;31563;51.744;8.252;2023-02-28T04:51:22;17.10;44.60
45843;DHT22;31563;51.744;8.252;2023-02-28T04:53:50;17.30;47.70
45843;DHT22;31563;51.744;8.252;2023-02-28T04:56:20;17.60;45.60
45843;DHT22;31563;51.744;8.252;2023-02-28T04:58:48;17.00;44.80
45843;DHT22;31563;51.744;8.252;2023-02-28T05:01:20;17.60;45.00
45843;DHT22;31563;51.744;8.252;2023-02-28T05:03:49;17.70;47.90
45843;DHT22;31563;51.744;8.252;2023-02-28T05:08:47;17.90;44.90
45843;DHT22;31563;51.744;8.252;2023-02-28T05:11:18;18.00;34.90
45843;DHT22;31563;51.744;8.252;2023-02-28T05:13:49;17.60;50.80
45843;DHT22;31563;51.744;8.252;2023-02-28T05:16:17;17.40;47.70
45843;DHT22;31563;51.744;8.252;2023-02-28T05:18:47;17.80;48.20
45843;DHT22;31563;51.744;8.252;2023-02-28T05:21:27;17.30;56.40
45843;DHT22;31563;51.744;8.252;2023-02-28T05:23:57;17.50;49.40
45843;DHT22;31563;51.744;8.252;2023-02-28T05:26:26;17.80;34.70
45843;DHT22;31563;51.744;8.252;2023-02-28T05:28:56;17.60;31.80
45843;DHT22;31563;51.744;8.252;2023-02-28T05:31:24;16.30;41.60
45843;DHT22;31563;51.744;8.252;2023-02-28T05:33:52;16.40;42.60
45843;DHT22;31563;51.744;8.252;2023-02-28T05:36:21;16.00;40.20
45843;DHT22;31563;51.744;8.252;2023-02-28T05:38:49;16.10;40.40
45843;DHT22;31563;51.744;8.252;2023-02-28T05:41:19;16.10;31.00
45843;DHT22;31563;51.744;8.252;2023-02-28T05:43:48;16.10;30.50
45843;DHT22;31563;51.744;8.252;2023-02-28T05:46:17;15.60;29.90
45843;DHT22;31563;51.744;8.252;2023-02-28T05:48:47;16.20;33.20
45843;DHT22;31563;51.744;8.252;2023-02-28T05:51:16;16.70;34.10
45843;DHT22;31563;51.744;8.252;2023-02-28T05:53:45;17.10;33.30
45843;DHT22;31563;51.744;8.252;2023-02-28T05:56:15;16.80;29.70
45843;DHT22;31563;51.744;8.252;2023-02-28T05:58:43;16.50;29.50
45843;DHT22;31563;51.744;8.252;2023-02-28T06:01:24;16.30;29.80
45843;DHT22;31563;51.744;8.252;2023-02-28T06:03:53;16.20;29.80
45843;DHT22;31563;51.744;8.252;2023-02-28T06:06:21;16.00;29.40
45843;DHT22;31563;51.744;8.252;2023-02-28T06:08:49;16.00;30.00
45843;DHT22;31563;51.744;8.252;2023-02-28T06:11:17;15.90;30.30
45843;DHT22;31563;51.744;8.252;2023-02-28T06:13:46;16.10;31.00
45843;DHT22;31563;51.744;8.252;2023-02-28T06:16:15;16.30;31.10
45843;DHT22;31563;51.744;8.252;2023-02-28T06:18:45;16.50;31.10
45843;DHT22;31563;51.744;8.252;2023-02-28T06:21:13;16.60;31.10
45843;DHT22;31563;51.744;8.252;2023-02-28T06:23:41;16.70;31.20
45843;DHT22;31563;51.744;8.252;2023-02-28T06:26:09;16.70;31.10
45843;DHT22;31563;51.744;8.252;2023-02-28T06:28:37;16.80;31.10
45843;DHT22;31563;51.744;8.252;2023-02-28T06:31:07;16.80;31.00
45843;DHT22;31563;51.744;8.252;2023-02-28T06:33:36;16.80;31.00
45843;DHT22;31563;51.744;8.252;2023-02-28T06:36:07;16.90;31.00
45843;DHT22;31563;51.744;8.252;2023-02-28T06:38:35;16.90;31.00
45843;DHT22;31563;51.744;8.252;2023-02-28T06:41:03;16.90;31.00
45843;DHT22;31563;51.744;8.252;2023-02-28T06:43:34;17.00;31.00
45843;DHT22;31563;51.744;8.252;2023-02-28T06:46:06;17.00;30.90
45843;DHT22;31563;51.744;8.252;2023-02-28T06:48:35;17.10;31.00
45843;DHT22;31563;51.744;8.252;2023-02-28T06:51:07;17.10;31.00
45843;DHT22;31563;51.744;8.252;2023-02-28T06:53:35;17.20;31.00
45843;DHT22;31563;51.744;8.252;2023-02-28T06:56:04;17.20;30.90
45843;DHT22;31563;51.744;8.252;2023-02-28T06:58:33;17.20;31.00
45843;DHT22;31563;51.744;8.252;2023-02-28T07:01:02;17.30;30.90
45843;DHT22;31563;51.744;8.252;2023-02-28T07:03:31;17.30;31.00
45843;DHT22;31563;51.744;8.252;2023-02-28T07:06:00;17.40;30.90
45843;DHT22;31563;51.744;8.252;2023-02-28T07:08:30;17.40;30.90
45843;DHT22;31563;51.744;8.252;2023-02-28T07:10:58;17.50;31.00
45843;DHT22;31563;51.744;8.252;2023-02-28T07:13:26;17.50;30.90
45843;DHT22;31563;51.744;8.252;2023-02-28T07:15:55;17.60;31.00
45843;DHT22;31563;51.744;8.252;2023-02-28T07:18:24;17.70;31.00
45843;DHT22;31563;51.744;8.252;2023-02-28T07:20:52;17.80;30.90
45843;DHT22;31563;51.744;8.252;2023-02-28T07:23:20;17.80;30.80
45843;DHT22;31563;51.744;8.252;2023-02-28T07:25:51;17.90;30.80
45843;DHT22;31563;51.744;8.252;2023-02-28T07:28:19;18.00;30.80
45843;DHT22;31563;51.744;8.252;2023-02-28T07:30:47;18.10;30.80
45843;DHT22;31563;51.744;8.252;2023-02-28T07:33:15;18.20;30.80
45843;DHT22;31563;51.744;8.252;2023-02-28T07:35:44;18.30;30.70
45843;DHT22;31563;51.744;8.252;2023-02-28T07:38:12;18.50;30.70
45843;DHT22;31563;51.744;8.252;2023-02-28T07:40:41;18.60;30.60
45843;DHT22;31563;51.744;8.252;2023-02-28T07:43:10;18.70;30.40
45843;DHT22;31563;51.744;8.252;2023-02-28T07:45:38;18.80;30.40
45843;DHT22;31563;51.744;8.252;2023-02-28T07:48:06;19.00;30.50
45843;DHT22;31563;51.744;8.252;2023-02-28T07:50:36;19.20;30.40
45843;DHT22;31563;51.744;8.252;2023-02-28T07:53:04;19.30;30.40
45843;DHT22;31563;51.744;8.252;2023-02-28T07:55:32;19.40;30.30
45843;DHT22;31563;51.744;8.252;2023-02-28T07:58:01;19.60;30.10
45843;DHT22;31563;51.744;8.252;2023-02-28T08:00:30;19.70;30.10
45843;DHT22;31563;51.744;8.252;2023-02-28T08:02:59;19.90;30.10
45843;DHT22;31563;51.744;8.252;2023-02-28T08:05:27;20.00;30.00
45843;DHT22;31563;51.744;8.252;2023-02-28T08:07:56;20.20;30.30
45843;DHT22;31563;51.744;8.252;2023-02-28T08:10:25;20.50;30.50
45843;DHT22;31563;51.744;8.252;2023-02-28T08:12:53;20.60;30.30
45843;DHT22;31563;51.744;8.252;2023-02-28T08:15:21;20.80;30.20
45843;DHT22;31563;51.744;8.252;2023-02-28T08:17:50;21.00;30.30
45843;DHT22;31563;51.744;8.252;2023-02-28T08:20:18;21.20;30.10
45843;DHT22;31563;51.744;8.252;2023-02-28T08:22:46;21.30;30.00
45843;DHT22;31563;51.744;8.252;2023-02-28T08:25:15;21.50;30.00
45843;DHT22;31563;51.744;8.252;2023-02-28T08:27:43;21.70;30.00
45843;DHT22;31563;51.744;8.252;2023-02-28T08:30:12;21.90;29.90
45843;DHT22;31563;51.744;8.252;2023-02-28T08:32:41;22.10;29.80
45843;DHT22;31563;51.744;8.252;2023-02-28T08:35:10;22.30;29.80
45843;DHT22;31563;51.744;8.252;2023-02-28T08:37:39;22.50;29.80
45843;DHT22;31563;51.744;8.252;2023-02-28T08:40:08;22.70;29.70
45843;DHT22;31563;51.744;8.252;2023-02-28T08:42:36;22.90;29.60
45843;DHT22;31563;51.744;8.252;2023-02-28T08:45:05;23.10;29.60
45843;DHT22;31563;51.744;8.252;2023-02-28T08:47:33;23.40;29.50
45843;DHT22;31563;51.744;8.252;2023-02-28T08:50:02;23.60;29.30
45843;DHT22;31563;51.744;8.252;2023-02-28T08:52:31;23.80;29.20
45843;DHT22;31563;51.744;8.252;2023-02-28T08:54:59;24.10;29.10
45843;DHT22;31563;51.744;8.252;2023-02-28T08:57:27;24.10;28.60
45843;DHT22;31563;51.744;8.252;2023-02-28T08:59:55;23.90;28.50
45843;DHT22;31563;51.744;8.252;2023-02-28T09:02:24;23.70;29.00
45843;DHT22;31563;51.744;8.252;2023-02-28T09:04:52;23.70;29.60
45843;DHT22;31563;51.744;8.252;2023-02-28T09:07:20;23.90;29.80
45843;DHT22;31563;51.744;8.252;2023-02-28T09:09:49;24.00;29.70
45843;DHT22;31563;51.744;8.252;2023-02-28T09:12:25;24.60;30.60
45843;DHT22;31563;51.744;8.252;2023-02-28T09:14:54;24.70;29.60
45843;DHT22;31563;51.744;8.252;2023-02-28T09:17:22;24.70;29.60
45843;DHT22;31563;51.744;8.252;2023-02-28T09:19:56;24.70;29.60
45843;DHT22;31563;51.744;8.252;2023-02-28T09:22:25;24.50;29.60
45843;DHT22;31563;51.744;8.252;2023-02-28T09:24:54;24.90;31.00
45843;DHT22;31563;51.744;8.252;2023-02-28T09:27:22;25.60;30.00
45843;DHT22;31563;51.744;8.252;2023-02-28T09:29:50;26.10;30.10
45843;DHT22;31563;51.744;8.252;2023-02-28T09:32:19;25.80;25.40
45843;DHT22;31563;51.744;8.252;2023-02-28T09:34:47;25.30;25.40
45843;DHT22;31563;51.744;8.252;2023-02-28T09:37:15;25.00;24.60
45843;DHT22;31563;51.744;8.252;2023-02-28T09:39:43;25.00;24.80
45843;DHT22;31563;51.744;8.252;2023-02-28T09:42:21;25.00;24.40
45843;DHT22;31563;51.744;8.252;2023-02-28T09:44:50;25.10;23.70
45843;DHT22;31563;51.744;8.252;2023-02-28T09:47:27;25.20;23.10
45843;DHT22;31563;51.744;8.252;2023-02-28T09:49:59;25.50;23.70
45843;DHT22;31563;51.744;8.252;2023-02-28T09:52:32;25.60;23.30
45843;DHT22;31563;51.744;8.252;2023-02-28T09:55:01;25.80;23.40
45843;DHT22;31563;51.744;8.252;2023-02-28T09:57:38;26.30;23.90
45843;DHT22;31563;51.744;8.252;2023-02-28T10:00:14;27.00;24.60
45843;DHT22;31563;51.744;8.252;2023-02-28T10:03:25;27.70;24.30
45843;DHT22;31563;51.744;8.252;2023-02-28T10:05:57;28.40;24.50
45843;DHT22;31563;51.744;8.252;2023-02-28T10:08:30;28.70;23.90
45843;DHT22;31563;51.744;8.252;2023-02-28T10:11:05;28.60;23.60
45843;DHT22;31563;51.744;8.252;2023-02-28T10:13:41;28.60;23.80
45843;DHT22;31563;51.744;8.252;2023-02-28T10:16:17;28.60;23.70
45843;DHT22;31563;51.744;8.252;2023-02-28T10:18:51;28.90;23.90
45843;DHT22;31563;51.744;8.252;2023-02-28T10:21:23;28.80;23.50
45843;DHT22;31563;51.744;8.252;2023-02-28T10:23:59;28.50;23.50
45843;DHT22;31563;51.744;8.252;2023-02-28T10:26:31;28.20;23.50
45843;DHT22;31563;51.744;8.252;2023-02-28T10:29:01;27.90;23.70
45843;DHT22;31563;51.744;8.252;2023-02-28T10:31:30;27.60;23.70
45843;DHT22;31563;51.744;8.252;2023-02-28T10:33:58;27.20;24.30
45843;DHT22;31563;51.744;8.252;2023-02-28T10:36:26;26.90;23.90
45843;DHT22;31563;51.744;8.252;2023-02-28T10:38:55;26.80;24.20
45843;DHT22;31563;51.744;8.252;2023-02-28T10:41:28;26.60;24.30
45843;DHT22;31563;51.744;8.252;2023-02-28T10:44:19;26.60;24.90
45843;DHT22;31563;51.744;8.252;2023-02-28T10:46:48;26.60;24.50
45843;DHT22;31563;51.744;8.252;2023-02-28T10:49:20;26.60;24.70
45843;DHT22;31563;51.744;8.252;2023-02-28T10:51:52;26.60;24.80
45843;DHT22;31563;51.744;8.252;2023-02-28T10:54:23;26.50;24.80
45843;DHT22;31563;51.744;8.252;2023-02-28T10:57:09;26.50;24.90
45843;DHT22;31563;51.744;8.252;2023-02-28T10:59:44;26.60;25.10
45843;DHT22;31563;51.744;8.252;2023-02-28T11:02:32;26.80;25.30
45843;DHT22;31563;51.744;8.252;2023-02-28T11:05:02;27.00;25.30
45843;DHT22;31563;51.744;8.252;2023-02-28T11:07:30;27.10;25.30
45843;DHT22;31563;51.744;8.252;2023-02-28T11:10:20;27.20;25.40
45843;DHT22;31563;51.744;8.252;2023-02-28T11:12:48;27.60;26.10
45843;DHT22;31563;51.744;8.252;2023-02-28T11:15:23;28.70;26.60
45843;DHT22;31563;51.744;8.252;2023-02-28T11:17:57;29.90;26.80
45843;DHT22;31563;51.744;8.252;2023-02-28T11:20:28;31.10;25.70
45843;DHT22;31563;51.744;8.252;2023-02-28T11:22:59;32.00;25.50
45843;DHT22;31563;51.744;8.252;2023-02-28T11:25:31;32.90;25.90
45843;DHT22;31563;51.744;8.252;2023-02-28T11:28:01;33.90;25.50
45843;DHT22;31563;51.744;8.252;2023-02-28T11:30:36;34.50;24.60
45843;DHT22;31563;51.744;8.252;2023-02-28T11:33:22;35.10;24.90
45843;DHT22;31563;51.744;8.252;2023-02-28T11:35:52;35.80;24.50
45843;DHT22;31563;51.744;8.252;2023-02-28T11:38:22;36.40;24.60
45843;DHT22;31563;51.744;8.252;2023-02-28T11:41:10;36.90;24.60
45843;DHT22;31563;51.744;8.252;2023-02-28T11:43:57;37.10;23.90
45843;DHT22;31563;51.744;8.252;2023-02-28T11:46:35;35.60;22.80
45843;DHT22;31563;51.744;8.252;2023-02-28T11:49:19;34.90;23.60
45843;DHT22;31563;51.744;8.252;2023-02-28T11:51:55;34.10;23.40
45843;DHT22;31563;51.744;8.252;2023-02-28T11:54:45;34.00;24.10
45843;DHT22;31563;51.744;8.252;2023-02-28T11:57:36;33.50;23.60
45843;DHT22;31563;51.744;8.252;2023-02-28T12:00:19;32.70;23.60
45843;DHT22;31563;51.744;8.252;2023-02-28T12:03:03;32.10;23.90
45843;DHT22;31563;51.744;8.252;2023-02-28T12:05:38;31.50;24.00
45843;DHT22;31563;51.744;8.252;2023-02-28T12:08:24;31.20;24.20
45843;DHT22;31563;51.744;8.252;2023-02-28T12:11:03;32.50;25.90
45843;DHT22;31563;51.744;8.252;2023-02-28T12:13:41;34.20;25.80
45843;DHT22;31563;51.744;8.252;2023-02-28T12:16:33;35.40;25.10
45843;DHT22;31563;51.744;8.252;2023-02-28T12:19:23;36.40;25.00
45843;DHT22;31563;51.744;8.252;2023-02-28T12:22:15;37.30;24.60
45843;DHT22;31563;51.744;8.252;2023-02-28T12:24:54;37.90;24.40
45843;DHT22;31563;51.744;8.252;2023-02-28T12:27:25;37.80;23.40
45843;DHT22;31563;51.744;8.252;2023-02-28T12:29:58;37.10;23.10
45843;DHT22;31563;51.744;8.252;2023-02-28T12:32:30;36.10;23.20
45843;DHT22;31563;51.744;8.252;2023-02-28T12:35:03;35.10;23.50
45843;DHT22;31563;51.744;8.252;2023-02-28T12:37:37;34.50;23.80
45843;DHT22;31563;51.744;8.252;2023-02-28T12:40:12;34.10;24.30
45843;DHT22;31563;51.744;8.252;2023-02-28T12:42:44;33.80;24.10
45843;DHT22;31563;51.744;8.252;2023-02-28T12:45:19;33.40;24.30
45843;DHT22;31563;51.744;8.252;2023-02-28T12:47:51;33.10;24.50
45843;DHT22;31563;51.744;8.252;2023-02-28T12:50:22;33.20;24.70
45843;DHT22;31563;51.744;8.252;2023-02-28T12:52:58;33.00;24.80
45843;DHT22;31563;51.744;8.252;2023-02-28T12:55:33;32.70;24.80
45843;DHT22;31563;51.744;8.252;2023-02-28T12:58:10;32.50;24.90
45843;DHT22;31563;51.744;8.252;2023-02-28T13:00:51;32.50;25.10
45843;DHT22;31563;51.744;8.252;2023-02-28T13:03:46;32.30;25.10
45843;DHT22;31563;51.744;8.252;2023-02-28T13:09:16;31.90;25.30
45843;DHT22;31563;51.744;8.252;2023-02-28T13:11:45;31.60;22.10
45843;DHT22;31563;51.744;8.252;2023-02-28T13:14:20;31.40;22.30
45843;DHT22;31563;51.744;8.252;2023-02-28T13:17:10;31.70;23.40
45843;DHT22;31563;51.744;8.252;2023-02-28T13:19:41;32.50;23.40
45843;DHT22;31563;51.744;8.252;2023-02-28T13:22:19;33.30;23.60
45843;DHT22;31563;51.744;8.252;2023-02-28T13:24:49;34.00;23.60
45843;DHT22;31563;51.744;8.252;2023-02-28T13:27:36;34.50;23.30
45843;DHT22;31563;51.744;8.252;2023-02-28T13:33:27;33.90;23.00
45843;DHT22;31563;51.744;8.252;2023-02-28T13:36:26;33.60;20.80
45843;DHT22;31563;51.744;8.252;2023-02-28T13:38:58;32.90;20.60
45843;DHT22;31563;51.744;8.252;2023-02-28T13:41:55;32.50;20.70
45843;DHT22;31563;51.744;8.252;2023-02-28T13:44:23;32.20;20.80
45843;DHT22;31563;51.744;8.252;2023-02-28T13:47:27;32.00;20.40
45843;DHT22;31563;51.744;8.252;2023-02-28T13:50:20;31.70;20.50
45843;DHT22;31563;51.744;8.252;2023-02-28T13:52:59;31.20;20.40
45843;DHT22;31563;51.744;8.252;2023-02-28T13:55:35;30.70;20.30
45843;DHT22;31563;51.744;8.252;2023-02-28T13:58:16;30.80;20.50
45843;DHT22;31563;51.744;8.252;2023-02-28T14:01:11;30.80;20.30
45843;DHT22;31563;51.744;8.252;2023-02-28T14:03:53;31.10;20.50
45843;DHT22;31563;51.744;8.252;2023-02-28T14:06:28;31.30;20.40
45843;DHT22;31563;51.744;8.252;2023-02-28T14:09:02;31.70;20.30
45843;DHT22;31563;51.744;8.252;2023-02-28T14:11:38;32.40;20.10
45843;DHT22;31563;51.744;8.252;2023-02-28T14:14:07;33.70;20.60
45843;DHT22;31563;51.744;8.252;2023-02-28T14:16:36;35.50;20.80
45843;DHT22;31563;51.744;8.252;2023-02-28T14:19:12;37.20;21.00
45843;DHT22;31563;51.744;8.252;2023-02-28T14:21:50;38.40;20.70
45843;DHT22;31563;51.744;8.252;2023-02-28T14:24:48;38.80;20.70
45843;DHT22;31563;51.744;8.252;2023-02-28T14:27:32;38.80;20.80
45843;DHT22;31563;51.744;8.252;2023-02-28T14:36:14;40.00;20.90
45843;DHT22;31563;51.744;8.252;2023-02-28T14:38:46;41.30;20.80
45843;DHT22;31563;51.744;8.252;2023-02-28T14:41:21;42.10;20.50
45843;DHT22;31563;51.744;8.252;2023-02-28T14:43:56;42.80;20.50
45843;DHT22;31563;51.744;8.252;2023-02-28T14:46:35;43.30;20.40
45843;DHT22;31563;51.744;8.252;2023-02-28T14:49:04;43.70;20.10
45843;DHT22;31563;51.744;8.252;2023-02-28T14:51:33;44.00;20.00
45843;DHT22;31563;51.744;8.252;2023-02-28T14:54:03;44.30;20.10
45843;DHT22;31563;51.744;8.252;2023-02-28T14:56:35;44.40;20.10
45843;DHT22;31563;51.744;8.252;2023-02-28T14:59:05;44.40;20.00
45843;DHT22;31563;51.744;8.252;2023-02-28T15:01:51;44.40;20.10
45843;DHT22;31563;51.744;8.252;2023-02-28T15:04:25;44.50;20.10
45843;DHT22;31563;51.744;8.252;2023-02-28T15:07:09;44.60;20.20
45843;DHT22;31563;51.744;8.252;2023-02-28T15:09:37;44.50;19.90
45843;DHT22;31563;51.744;8.252;2023-02-28T15:12:06;44.50;20.20
45843;DHT22;31563;51.744;8.252;2023-02-28T15:14:36;44.30;20.20
45843;DHT22;31563;51.744;8.252;2023-02-28T15:17:08;43.70;19.80
45843;DHT22;31563;51.744;8.252;2023-02-28T15:19:50;42.70;20.50
45843;DHT22;31563;51.744;8.252;2023-02-28T15:22:28;42.60;20.60
45843;DHT22;31563;51.744;8.252;2023-02-28T15:24:59;42.90;20.70
45843;DHT22;31563;51.744;8.252;2023-02-28T15:27:30;43.00;20.70
45843;DHT22;31563;51.744;8.252;2023-02-28T15:30:05;43.00;20.60
45843;DHT22;31563;51.744;8.252;2023-02-28T15:32:35;43.00;20.60
45843;DHT22;31563;51.744;8.252;2023-02-28T15:35:25;42.90;20.70
45843;DHT22;31563;51.744;8.252;2023-02-28T15:37:54;42.80;20.80
45843;DHT22;31563;51.744;8.252;2023-02-28T15:40:23;42.70;20.90
45843;DHT22;31563;51.744;8.252;2023-02-28T15:43:00;42.60;20.80
45843;DHT22;31563;51.744;8.252;2023-02-28T15:45:43;42.60;20.90
45843;DHT22;31563;51.744;8.252;2023-02-28T15:48:20;42.40;20.90
45843;DHT22;31563;51.744;8.252;2023-02-28T15:50:52;42.00;20.70
45843;DHT22;31563;51.744;8.252;2023-02-28T15:53:23;41.10;20.40
45843;DHT22;31563;51.744;8.252;2023-02-28T15:55:55;40.00;21.00
45843;DHT22;31563;51.744;8.252;2023-02-28T15:58:25;39.10;21.40
45843;DHT22;31563;51.744;8.252;2023-02-28T16:01:05;38.00;19.20
45843;DHT22;31563;51.744;8.252;2023-02-28T16:03:43;36.00;19.10
45843;DHT22;31563;51.744;8.252;2023-02-28T16:06:33;35.00;20.70
45843;DHT22;31563;51.744;8.252;2023-02-28T16:09:04;34.90;21.60
45843;DHT22;31563;51.744;8.252;2023-02-28T16:11:38;34.90;22.30
45843;DHT22;31563;51.744;8.252;2023-02-28T16:14:16;34.90;22.60
45843;DHT22;31563;51.744;8.252;2023-02-28T16:16:47;34.80;22.70
45843;DHT22;31563;51.744;8.252;2023-02-28T16:19:16;34.70;23.30
45843;DHT22;31563;51.744;8.252;2023-02-28T16:21:44;34.70;23.50
45843;DHT22;31563;51.744;8.252;2023-02-28T16:24:13;34.50;24.50
45843;DHT22;31563;51.744;8.252;2023-02-28T16:26:44;34.40;24.10